Tiempo atmosférico en la estación meteorológica de Monreal/Elo, Navarra (585 m.)



Fecha
DESCASC
Temp. máxima en grados centígrados (hora)
DESCASC
Temp. mínima en grados centígrados (hora)
DESCASC
Temp. media en grados centígrados
DESCASC
Racha de viento máxima en m/sg (hora)
DESCASC
Velocidad máxima media en intervalos de 10 minutos(hora)
DESCASC
Precipitaciones diarias en mm
DESCASC
Precipitaciones de 00:00 a 06:00 en mm
DESCASC
Precipitaciones de 06:00 a 12:00 en mm
DESCASC
Precipitaciones de 12:00 a 18:00 en mm
DESCASC
Precipitaciones de 18:00 a 24:00 en mm
DESCASC
29-10-2020 18.9 (15:30) 6 (07:30) 12.4 5 (13:50) 3.89 (13:50) 0 0 0 0 0
28-10-2020 16.9 (15:00) 8.4 (01:40) 12.6 7.22 (19:20) 5.56 (19:20) 0 0 0 0 0
27-10-2020 13 (14:20) 4.2 (00:00) 8.6 6.39 (15:40) 3.89 (19:50) 0 0 0 0 0
26-10-2020 10.3 (13:30) 5.2 (00:00) 7.8 13.06 (15:30) 8.61 (15:40) 1.8 0.4 0.2 1.2 0
25-10-2020 14.8 (15:50) 7.3 (00:00) 11.1 18.61 (12:30) 13.33 (13:00) 14.6 0 0 9 5.6
24-10-2020 16.8 (15:10) 4.7 (00:00) 10.7 9.72 (13:10) 6.39 (23:50) 0 0 0 0 0
23-10-2020 17.5 (16:40) 8.3 (00:00) 12.9 11.39 (12:20) 8.06 (03:30) 0 0 0 0 0
22-10-2020 19.6 (13:20) 12.2 (00:00) 15.9 16.67 (13:50) 11.39 (19:40) 0 0 0 0 0
21-10-2020 19.4 (14:30) 13.9 (00:00) 16.6 24.72 (00:50) 17.78 (00:30) 2 1.6 0 0 0.4
20-10-2020 16.1 (03:10) 13.5 (00:00) 14.8 27.78 (22:10) 20.83 (21:50) 3.8 0 0.8 3 0
19-10-2020 20.9 (15:50) 7.7 (00:00) 14.3 19.17 (23:30) 15.83 (23:30) 0 0 0 0 0
18-10-2020 18.1 (16:20) 2.5 (00:00) 10.3 3.89 (14:30) 3.06 (22:40) 0 0 0 0 0
17-10-2020 15.1 (17:10) 1.1 (00:00) 8.1 5 (16:20) 3.89 (15:50) 0 0 0 0 0
16-10-2020 11.8 (15:40) 3.6 (00:00) 7.7 14.17 (10:40) 8.06 (10:40) 0 0 0 0 0
15-10-2020 10.9 (15:10) 5.2 (00:00) 8 12.78 (17:50) 9.44 (17:50) 1 0.4 0.6 0 0
14-10-2020 9.2 (16:50) 5.9 (00:00) 7.5 13.61 (13:10) 9.44 (13:10) 9.8 0.6 4.6 4.2 0.4
13-10-2020 12.8 (14:30) 8.2 (00:00) 10.5 14.17 (12:00) 9.72 (12:00) 2 1 0.8 0.2 0
12-10-2020 12 (14:00) 7.6 (00:00) 9.8 13.89 (02:50) 10 (16:30) 0.6 0.2 0.4 0 0
11-10-2020 10.2 (14:20) 6.6 (00:00) 8.4 16.67 (23:30) 10.56 (04:30) 2.4 0 0 0.8 1.6
10-10-2020 15.2 (15:20) 9.5 (00:00) 12.3 15.83 (18:00) 11.39 (18:00) 0 0 0 0 0
09-10-2020 20.4 (15:20) 10 (00:00) 15.2 10.83 (17:20) 8.61 (17:20) 0 0 0 0 0
08-10-2020 23.4 (15:20) 7.9 (00:00) 15.6 6.67 (00:20) 5 (03:00) 0 0 0 0 0
07-10-2020 17.7 (16:20) 13.3 (00:00) 15.5 11.11 (19:40) 8.33 (19:40) 0 0 0 0 0
06-10-2020 18.1 (15:40) 9.1 (00:00) 13.6 5.83 (16:40) 4.17 (17:00) 0 0 0 0 0
05-10-2020 16.8 (17:30) 7.5 (00:00) 12.1 7.22 (13:00) 4.72 (14:00) 0 0 0 0 0
04-10-2020 12.3 (12:50) 7.7 (00:00) 10 12.78 (17:50) 8.61 (17:50) 5.8 0 4.4 1.4 0
03-10-2020 14.2 (16:50) 5.8 (00:00) 10 18.61 (10:00) 11.67 (03:00) 13.8 0 12.8 1 0
02-10-2020 15.6 (00:00) 7.2 (00:00) 11.4 19.17 (04:20) 14.17 (03:20) 25.8 3 22.8 0 0
01-10-2020 18.4 (16:50) 9.9 (00:00) 14.1 14.72 (23:59) 11.67 (23:59) 0 0 0 0 0

Gráficas

Temp. máximas Temp. mínimas Temp. medias Precipitaciones Rachas de viento máximas Velocidades máximas media en intervalos de 10 minutos

Datos horarios

Fecha y hora oficial Temperatura (ºC) Velocidad del viento (km/h) Dirección del viento Racha (km/h) Dirección de racha Precipitación (mm) Presión (hPa) Tendencia (hPa) Humedad (%)
2020-10-30 23:00:00 9.2 11 Sudeste 14 Sudeste 0 -- -- 88
2020-10-30 22:00:00 9.6 12 Sudeste 15 Sudeste 0 -- -- 86
2020-10-30 21:00:00 9.3 12 Sudeste 14 Sudeste 0 -- -- 85
2020-10-30 20:00:00 10.4 6 Sudeste 11 Sudeste 0 -- -- 82
2020-10-30 19:00:00 11.3 8 Sudeste 14 Sudeste 0 -- -- 83
2020-10-30 18:00:00 14.2 6 Sudeste 10 Sur 0 -- -- 75
2020-10-30 17:00:00 17 7 Noroeste 14 Noroeste 0 -- -- 66
2020-10-30 16:00:00 18 9 Noroeste 14 Noroeste 0 -- -- 64
2020-10-30 15:00:00 17.8 10 Noroeste 13 Noroeste 0 -- -- 66
2020-10-30 14:00:00 17.3 9 Noroeste 13 Noroeste 0 -- -- 69
2020-10-30 13:00:00 15.9 10 Noroeste 13 Oeste 0 -- -- 71
2020-10-30 12:00:00 14.8 8 Noroeste 12 Noroeste 0 -- -- 74
2020-10-30 11:00:00 14.6 2 Noroeste 7 Sur 0 -- -- 74
2020-10-30 10:00:00 11.1 2 Norte 9 Este 0 -- -- 83
2020-10-30 09:00:00 9.7 6 Este 10 Este 0 -- -- 88
2020-10-30 08:00:00 6.1 4 Este 8 Este 0 -- -- 96
2020-10-30 07:00:00 7.6 3 Sudeste 14 Este 0 -- -- 94
2020-10-30 06:00:00 7.3 6 Sudeste 12 Este 0 -- -- 93
2020-10-30 05:00:00 8.3 6 Sudeste 10 Este 0 -- -- 89
2020-10-30 04:00:00 8.7 6 Este 13 Sudeste 0 -- -- 90
2020-10-30 03:00:00 8.8 5 Este 15 Sudeste 0 -- -- 90
2020-10-30 02:00:00 9.1 9 Sudeste 13 Sudeste 0 -- -- 91
2020-10-30 01:00:00 9.7 10 Sudeste 16 Sudeste 0 -- -- 87
2020-10-30 00:00:00 9.1 8 Sudeste 12 Sudeste 0 -- -- 89
2020-10-29 23:00:00 10 7 Sudeste 11 Sudeste 0 -- -- 87
2020-10-29 22:00:00 8.9 10 Sudeste 12 Sudeste 0 -- -- 90
2020-10-29 21:00:00 9.5 8 Sudeste 12 Sudeste 0 -- -- 90
2020-10-29 20:00:00 10.3 9 Sudeste 14 Sudeste 0 -- -- 89
2020-10-29 19:00:00 11.5 6 Sudeste 11 Sudeste 0 -- -- 88
2020-10-29 18:00:00 13.6 5 Sudeste 10 Sur 0 -- -- 80
2020-10-29 17:00:00 17.2 4 Oeste 9 Oeste 0 -- -- 66
2020-10-29 16:00:00 18.5 4 Oeste 10 Oeste 0 -- -- 59
2020-10-29 15:00:00 18.1 4 Noroeste 17 Oeste 0 -- -- 59
2020-10-29 14:00:00 16.7 12 Noroeste 18 Oeste 0 -- -- 65
2020-10-29 13:00:00 16.4 7 Noroeste 11 Oeste 0 -- -- 64
2020-10-29 12:00:00 15.5 4 Noroeste 14 Noroeste 0 -- -- 66
2020-10-29 11:00:00 13 12 Noroeste 15 Noroeste 0 -- -- 73
2020-10-29 10:00:00 12.2 7 Sudeste 10 Sudeste 0 -- -- 78
2020-10-29 09:00:00 8.4 7 Sudeste 9 Sudeste 0 -- -- 88
2020-10-29 08:00:00 6.3 4 Sudeste 9 Sudeste 0 -- -- 95
2020-10-29 07:00:00 6.6 7 Sudeste 8 Sudeste 0 -- -- 93
2020-10-29 06:00:00 8.2 0 Calma 7 Sudeste 0 -- -- 89
2020-10-29 05:00:00 8.8 3 Este 12 Sudeste 0 -- -- 87
2020-10-29 04:00:00 7.8 4 Este 8 Sudeste 0 -- -- 91
2020-10-29 03:00:00 7.4 8 Sudeste 10 Sudeste 0 -- -- 92
2020-10-29 02:00:00 7.3 7 Sudeste 9 Sudeste 0 -- -- 92
2020-10-29 01:00:00 8 5 Sudeste 9 Sudeste 0 -- -- 90
2020-10-29 00:00:00 8.7 5 Sudeste 8 Sudeste 0 -- -- 89
2020-10-28 23:00:00 10.2 4 Este 7 Sudeste 0 -- -- 85
2020-10-28 22:00:00 11.1 6 Noroeste 18 Noroeste 0 -- -- 80
2020-10-28 21:00:00 11.8 13 Noroeste 23 Noroeste 0 -- -- 81
2020-10-28 20:00:00 12.3 19 Noroeste 26 Noroeste 0 -- -- 81
2020-10-28 19:00:00 13.3 18 Oeste 25 Oeste 0 -- -- 82
2020-10-28 18:00:00 13.5 8 Noroeste 12 Noroeste 0 -- -- 84
2020-10-28 17:00:00 16.3 4 Oeste 13 Noroeste 0 -- -- 73
2020-10-28 16:00:00 16.5 6 Noroeste 12 Sudoeste 0 -- -- 71
2020-10-28 15:00:00 16.9 6 Sudoeste 15 Oeste 0 -- -- 72
2020-10-28 14:00:00 15.1 7 Oeste 20 Noroeste 0 -- -- 80
2020-10-28 13:00:00 14.1 10 Noroeste 15 Noroeste 0 -- -- 82
2020-10-28 12:00:00 13 2 Sudeste 5 Sur 0 -- -- 88
2020-10-28 11:00:00 11.7 2 Sur 11 Sudeste 0 -- -- 87
2020-10-28 10:00:00 10.5 0 Calma 4 Noroeste 0 -- -- 89
2020-10-28 09:00:00 10.5 0 Calma 9 Sudeste 0 -- -- 87
2020-10-28 08:00:00 10.1 4 Sur 13 Este 0 -- -- 87
2020-10-28 07:00:00 9.8 8 Sudeste 14 Este 0 -- -- 88
2020-10-28 06:00:00 10 3 Sur 13 Sudeste 0 -- -- 86
2020-10-28 05:00:00 9.5 8 Sudeste 12 Este 0 -- -- 87
2020-10-28 04:00:00 8.6 7 Sudeste 10 Sudeste 0 -- -- 90
2020-10-28 03:00:00 8.6 10 Sudeste 12 Sudeste 0 -- -- 89
2020-10-28 02:00:00 8.8 5 Este 12 Sudeste 0 -- -- 87
2020-10-28 01:00:00 9 8 Sur 12 Sudoeste 0 -- -- 85
2020-10-28 00:00:00 9.7 10 Sur 15 Sudeste 0 -- -- 85
2020-10-27 23:00:00 10 12 Sudeste 15 Sudeste 0 -- -- 85
2020-10-27 22:00:00 10 5 Sur 14 Sur 0 -- -- 86
2020-10-27 21:00:00 10.3 4 Sur 13 Sudeste 0 -- -- 84
2020-10-27 20:00:00 10.5 7 Sur 18 Sudeste 0 -- -- 83
2020-10-27 19:00:00 10.6 4 Sudeste 15 Sudeste 0 -- -- 83
2020-10-27 18:00:00 11.7 4 Sur 10 Sur 0 -- -- 73
2020-10-27 17:00:00 12.3 5 Sudeste 18 Sur 0 -- -- 69
2020-10-27 16:00:00 12.5 8 Sur 23 Sur 0 -- -- 67
2020-10-27 15:00:00 12.5 13 Sur 22 Sur 0 -- -- 68
2020-10-27 14:00:00 12.3 12 Sur 17 Sur 0 -- -- 67
2020-10-27 13:00:00 11.8 4 Sur 14 Sur 0 -- -- 67
2020-10-27 12:00:00 10.5 4 Norte 12 Norte 0 -- -- 74
2020-10-27 11:00:00 9.1 4 Oeste 14 Oeste 0 -- -- 81
2020-10-27 10:00:00 7.2 0 Calma 5 Nordeste 0 -- -- 90
2020-10-27 09:00:00 5.8 2 Norte 9 Sudeste 0 -- -- 95
2020-10-27 08:00:00 4.7 5 Este 9 Este 0 -- -- 95
2020-10-27 07:00:00 4.6 2 Sudeste 9 Este 0 -- -- 95
2020-10-27 06:00:00 4.5 5 Sudeste 7 Sur 0 -- -- 94
2020-10-27 05:00:00 4.2 3 Sudeste 8 Sudeste 0 -- -- 95
2020-10-27 04:00:00 4.6 3 Sudeste 8 Sudeste 0 -- -- 95
2020-10-27 03:00:00 5.2 2 Este 9 Este 0 -- -- 95
2020-10-27 02:00:00 5.3 6 Sudeste 13 Sudeste 0 -- -- 94
2020-10-27 01:00:00 5.4 8 Sudeste 12 Este 0 -- -- 93
2020-10-27 00:00:00 5.2 8 Sudeste 10 Sudeste 0 -- -- 94
2020-10-26 23:00:00 5.8 5 Sudeste 9 Sudeste 0 -- -- 93
2020-10-26 22:00:00 5.9 8 Sudeste 11 Sudeste 0 -- -- 94
2020-10-26 21:00:00 5.9 9 Sudeste 11 Sudeste 0 -- -- 93
2020-10-26 20:00:00 7.2 0 Calma 11 Noroeste 0 -- -- 86
2020-10-26 19:00:00 8.1 8 Noroeste 16 Noroeste 0 -- -- 86
2020-10-26 18:00:00 8.6 6 Oeste 11 Noroeste 0 -- -- 84
2020-10-26 17:00:00 8.6 6 Norte 17 Oeste 0 -- -- 85
2020-10-26 16:00:00 7.8 14 Noroeste 47 Noroeste 0.8 -- -- 87
2020-10-26 15:00:00 8.9 14 Noroeste 23 Noroeste 0.4 -- -- 86
2020-10-26 14:00:00 9.8 7 Noroeste 18 Oeste 0 -- -- 77
2020-10-26 13:00:00 8.9 15 Noroeste 30 Noroeste 0 -- -- 82
2020-10-26 12:00:00 8.6 19 Noroeste 26 Noroeste 0 -- -- 82
2020-10-26 11:00:00 8.4 4 Nordeste 14 Noroeste 0 -- -- 78
2020-10-26 10:00:00 6.3 9 Noroeste 19 Oeste 0 -- -- 88
2020-10-26 09:00:00 5.9 16 Noroeste 33 Noroeste 0.2 -- -- 92
2020-10-26 08:00:00 5.4 2 Norte 14 Noroeste 0 -- -- 92
2020-10-26 07:00:00 5.8 2 Noroeste 7 Noroeste 0 -- -- 88
2020-10-26 06:00:00 5.8 3 Norte 13 Noroeste 0 -- -- 88
2020-10-26 05:00:00 5.3 13 Noroeste 17 Oeste 0 -- -- 93
2020-10-26 04:00:00 5.8 6 Noroeste 9 Norte 0 -- -- 93
2020-10-26 03:00:00 6.8 4 Noroeste 8 Noroeste 0 -- -- 93
2020-10-26 02:00:00 6.9 0 Calma 3 Norte 0 -- -- 95
2020-10-26 01:00:00 7 0 Calma 6 Oeste 0.4 -- -- 94
2020-10-26 00:00:00 7.4 3 Norte 9 Noroeste 0.2 -- -- 90
2020-10-25 23:00:00 7.4 10 Noroeste 27 Noroeste 0 -- -- 90
2020-10-25 22:00:00 7.7 17 Noroeste 37 Noroeste 0.6 -- -- 94
2020-10-25 21:00:00 8.3 13 Noroeste 44 Oeste 0.8 -- -- 96
2020-10-25 20:00:00 9 32 Noroeste 44 Noroeste 0.8 -- -- 94
2020-10-25 19:00:00 11.3 8 Sudeste 17 Este 3.2 -- -- 95
2020-10-25 18:00:00 11.6 8 Sudeste 24 Sur 8 -- -- 90
2020-10-25 17:00:00 12.2 19 Sur 49 Sur 1 -- -- 86
2020-10-25 16:00:00 14.4 37 Sudeste 60 Sudeste 0 -- -- 67
2020-10-25 15:00:00 14.1 39 Sudeste 58 Sudeste 0 -- -- 68
2020-10-25 14:00:00 14.1 37 Sudeste 65 Sudeste 0 -- -- 69
2020-10-25 13:00:00 14.6 48 Sudeste 67 Sudeste 0 -- -- 64
2020-10-25 12:00:00 13.7 40 Sur 56 Sur 0 -- -- 65
2020-10-25 11:00:00 13.6 29 Sur 49 Sudeste 0 -- -- 65
2020-10-25 10:00:00 13.2 30 Sudeste 58 Sudeste 0 -- -- 66
2020-10-25 09:00:00 12 27 Sur 40 Sudeste 0 -- -- 71
2020-10-25 08:00:00 10.2 25 Sudeste 40 Este 0 -- -- 77
2020-10-25 07:00:00 10.4 16 Sudeste 36 Este 0 -- -- 77
2020-10-25 06:00:00 11.1 22 Este 35 Este 0 -- -- 74
2020-10-25 05:00:00 10.7 14 Sur 24 Sudeste 0 -- -- 77
2020-10-25 04:00:00 11.3 12 Sudeste 32 Sur 0 -- -- 75
2020-10-25 03:00:00 11.6 23 Sur 41 Sur 0 -- -- 75
2020-10-25 02:00:00 11.4 12 Sudeste 17 Este 0 -- -- 76
2020-10-25 01:00:00 11.1 8 Sur 27 Sudeste 0 -- -- 77
2020-10-25 00:00:00 11.5 20 Sudeste 30 Sudeste 0 -- -- 76
2020-10-24 23:00:00 10.1 13 Sudeste 18 Sudeste 0 -- -- 81
2020-10-24 22:00:00 10.7 10 Sur 20 Sur 0 -- -- 76
2020-10-24 21:00:00 12.5 13 Sudeste 19 Sudeste 0 -- -- 69
2020-10-24 20:00:00 12.2 12 Sur 17 Sudeste 0 -- -- 70
2020-10-24 19:00:00 14 13 Sur 31 Sudeste 0 -- -- 65
2020-10-24 18:00:00 15.5 17 Sudeste 31 Sudeste 0 -- -- 58
2020-10-24 17:00:00 16.2 22 Sudeste 33 Sudeste 0 -- -- 53
2020-10-24 16:00:00 16.4 22 Sudeste 32 Sudeste 0 -- -- 53
2020-10-24 15:00:00 16.6 18 Sudeste 27 Sudeste 0 -- -- 57
2020-10-24 14:00:00 15.2 20 Sudeste 35 Sudeste 0 -- -- 62
2020-10-24 13:00:00 14.3 22 Sudeste 30 Sudeste 0 -- -- 64
2020-10-24 12:00:00 13.4 17 Sudeste 23 Sudeste 0 -- -- 70
2020-10-24 11:00:00 10.8 2 Noroeste 4 Oeste 0 -- -- 84
2020-10-24 10:00:00 8.4 3 Sudeste 8 Sudeste 0 -- -- 90
2020-10-24 09:00:00 5.2 9 Sudeste 10 Sudeste 0 -- -- 97
2020-10-24 08:00:00 5.2 7 Sudeste 9 Sudeste 0 -- -- 97
2020-10-24 07:00:00 5.6 5 Sudeste 10 Sudeste 0 -- -- 96
2020-10-24 06:00:00 5.8 6 Sudeste 10 Sudeste 0 -- -- 96
2020-10-24 05:00:00 5.9 5 Sudeste 11 Sudeste 0 -- -- 97
2020-10-24 04:00:00 6.3 4 Sudeste 12 Este 0 -- -- 96
2020-10-24 03:00:00 6 8 Sudeste 10 Sudeste 0 -- -- 95
2020-10-24 02:00:00 6.3 6 Sudeste 9 Sudeste 0 -- -- 95
2020-10-24 01:00:00 7.3 6 Sudeste 9 Sudeste 0 -- -- 93
2020-10-24 00:00:00 8.5 6 Sudeste 10 Sur 0 -- -- 91
2020-10-23 23:00:00 9 6 Sudeste 14 Noroeste 0 -- -- 89
2020-10-23 22:00:00 10.5 11 Noroeste 21 Noroeste 0 -- -- 86
2020-10-23 21:00:00 11.5 13 Noroeste 24 Oeste 0 -- -- 80
2020-10-23 20:00:00 12.8 17 Noroeste 30 Noroeste 0 -- -- 75
2020-10-23 19:00:00 13.7 6 Oeste 19 Noroeste 0 -- -- 62
2020-10-23 18:00:00 16.3 14 Oeste 30 Oeste 0 -- -- 54
2020-10-23 17:00:00 17.2 14 Noroeste 31 Oeste 0 -- -- 51
2020-10-23 16:00:00 16.7 22 Oeste 37 Oeste 0 -- -- 51
2020-10-23 15:00:00 16.4 15 Oeste 35 Oeste 0 -- -- 52
2020-10-23 14:00:00 16.3 24 Oeste 40 Noroeste 0 -- -- 57
2020-10-23 13:00:00 15.1 25 Noroeste 41 Oeste 0 -- -- 60
2020-10-23 12:00:00 13.7 26 Noroeste 37 Noroeste 0 -- -- 66
2020-10-23 11:00:00 13.1 17 Oeste 32 Noroeste 0 -- -- 73
2020-10-23 10:00:00 12.5 18 Noroeste 28 Noroeste 0 -- -- 77
2020-10-23 09:00:00 12 3 Este 8 Este 0 -- -- 85
2020-10-23 08:00:00 12 8 Sur 15 Sur 0 -- -- 88
2020-10-23 07:00:00 12.6 9 Sur 13 Sur 0 -- -- 84
2020-10-23 06:00:00 12.7 7 Sudeste 13 Sudeste 0 -- -- 84
2020-10-23 05:00:00 13 9 Sur 29 Sur 0 -- -- 82
2020-10-23 04:00:00 14 20 Sur 40 Sur 0 -- -- 81
2020-10-23 03:00:00 14.4 24 Sudeste 38 Sudeste 0 -- -- 83
2020-10-23 02:00:00 14.4 23 Sudeste 36 Sudeste 0 -- -- 85
2020-10-23 01:00:00 14.7 24 Sudeste 39 Sudeste 0 -- -- 83
2020-10-23 00:00:00 14.6 21 Sudeste 36 Sudeste 0 -- -- 82
2020-10-22 23:00:00 14.3 23 Sudeste 32 Sudeste 0 -- -- 82
2020-10-22 22:00:00 14.6 21 Sudeste 40 Sudeste 0 -- -- 78
2020-10-22 21:00:00 15.3 23 Sudeste 42 Sudeste 0 -- -- 73
2020-10-22 20:00:00 15.8 38 Sudeste 51 Sudeste 0 -- -- 76
2020-10-22 19:00:00 17 36 Sudeste 46 Sudeste 0 -- -- 72
2020-10-22 18:00:00 17.7 32 Sudeste 39 Sudeste 0 -- -- 68
2020-10-22 17:00:00 18.5 26 Sudeste 52 Sudeste 0 -- -- 67
2020-10-22 16:00:00 18.4 30 Sudeste 50 Sudeste 0 -- -- 67
2020-10-22 15:00:00 18.7 40 Sudeste 59 Sudeste 0 -- -- 64
2020-10-22 14:00:00 19 37 Sudeste 60 Sur 0 -- -- 64
2020-10-22 13:00:00 18.4 33 Sudeste 56 Sudeste 0 -- -- 65
2020-10-22 12:00:00 18.6 27 Sudeste 42 Sudeste 0 -- -- 68
2020-10-22 11:00:00 16.9 23 Sudeste 35 Sudeste 0 -- -- 75
2020-10-22 10:00:00 14.7 9 Sudeste 27 Sudeste 0 -- -- 81
2020-10-22 09:00:00 14.4 21 Sudeste 37 Sudeste 0 -- -- 83
2020-10-22 08:00:00 14.3 26 Sudeste 32 Sudeste 0 -- -- 83
2020-10-22 07:00:00 14.4 24 Sudeste 33 Sudeste 0 -- -- 77
2020-10-22 06:00:00 13.2 20 Sudeste 27 Sudeste 0 -- -- 80
2020-10-22 05:00:00 13.7 17 Sudeste 21 Sudeste 0 -- -- 74
2020-10-22 04:00:00 13.6 13 Sudeste 23 Sudeste 0 -- -- 77
2020-10-22 03:00:00 13.7 11 Sudeste 17 Sudeste 0 -- -- 75
2020-10-22 02:00:00 12.6 15 Sudeste 24 Sur 0 -- -- 80
2020-10-22 01:00:00 13.2 15 Sudeste 27 Sudeste 0 -- -- 78
2020-10-22 00:00:00 15 24 Sur 32 Sudeste 0 -- -- 70
2020-10-21 23:00:00 14.6 17 Sudeste 34 Sudeste 0 -- -- 71
2020-10-21 22:00:00 15.3 19 Sudeste 43 Sur 0 -- -- 66
2020-10-21 21:00:00 15 22 Sudeste 35 Sudeste 0 -- -- 74
2020-10-21 20:00:00 15.6 30 Sudeste 57 Sudeste 0 -- -- 72
2020-10-21 19:00:00 15.3 31 Sudeste 53 Sudeste 0.4 -- -- 77
2020-10-21 18:00:00 16.5 31 Sudeste 53 Sudeste 0 -- -- 70
2020-10-21 17:00:00 16.6 30 Sudeste 64 Sur 0 -- -- 68
2020-10-21 16:00:00 18.1 53 Sudeste 68 Sudeste 0 -- -- 60
2020-10-21 15:00:00 19.1 44 Sudeste 69 Sudeste 0 -- -- 56
2020-10-21 14:00:00 18.9 40 Sudeste 68 Sudeste 0 -- -- 59
2020-10-21 13:00:00 18.7 40 Sudeste 68 Sudeste 0 -- -- 60
2020-10-21 12:00:00 18.5 49 Sudeste 73 Sudeste 0 -- -- 60
2020-10-21 11:00:00 17.5 50 Sudeste 70 Sudeste 0 -- -- 64
2020-10-21 10:00:00 16.9 48 Sudeste 66 Sudeste 0 -- -- 67
2020-10-21 09:00:00 15.2 35 Sudeste 64 Sudeste 0 -- -- 76
2020-10-21 08:00:00 16.2 49 Sudeste 81 Sudeste 0 -- -- 69
2020-10-21 07:00:00 16.4 51 Sudeste 80 Sudeste 0 -- -- 68
2020-10-21 06:00:00 16.3 47 Sudeste 86 Sudeste 0 -- -- 70
2020-10-21 05:00:00 15.6 48 Sudeste 83 Sudeste 0.4 -- -- 75
2020-10-21 04:00:00 14.4 45 Sudeste 82 Sudeste 1.2 -- -- 84
2020-10-21 03:00:00 15.5 59 Sudeste 75 Sudeste 0 -- -- 74
2020-10-21 02:00:00 14.7 54 Sudeste 79 Sudeste 0 -- -- 79
2020-10-21 01:00:00 15.7 62 Sudeste 89 Sudeste 0 -- -- 73
2020-10-21 00:00:00 15.7 66 Sudeste 85 Sudeste 0 -- -- 73
2020-10-20 23:00:00 15.5 66 Sudeste 100 Sudeste 0 -- -- 73
2020-10-20 22:00:00 15.1 70 Sudeste 97 Sudeste 0 -- -- 71
2020-10-20 21:00:00 15.2 63 Sudeste 89 Sudeste 0 -- -- 73
2020-10-20 20:00:00 15.1 60 Sudeste 86 Sudeste 0 -- -- 76
2020-10-20 19:00:00 14.9 66 Sudeste 85 Sudeste 0 -- -- 80
2020-10-20 18:00:00 15.3 56 Sudeste 76 Sudeste 0 -- -- 81
2020-10-20 17:00:00 15 55 Sudeste 73 Sudeste 0.2 -- -- 85
2020-10-20 16:00:00 13.9 39 Sudeste 75 Sudeste 0.2 -- -- 91
2020-10-20 15:00:00 13.8 51 Sudeste 68 Sudeste 0.6 -- -- 90
2020-10-20 14:00:00 13.7 46 Sudeste 67 Sudeste 1.2 -- -- 88
2020-10-20 13:00:00 13.6 41 Sudeste 60 Sudeste 0.8 -- -- 89
2020-10-20 12:00:00 14.1 36 Sudeste 50 Sudeste 0.2 -- -- 87
2020-10-20 11:00:00 14 28 Sudeste 44 Sudeste 0 -- -- 86
2020-10-20 10:00:00 14 31 Sudeste 49 Sudeste 0.2 -- -- 84
2020-10-20 09:00:00 14 40 Sudeste 58 Sudeste 0.4 -- -- 83
2020-10-20 08:00:00 15.1 48 Sudeste 64 Sudeste 0 -- -- 73
2020-10-20 07:00:00 15.1 40 Sudeste 53 Sudeste 0 -- -- 73
2020-10-20 06:00:00 15.5 34 Sudeste 59 Sudeste 0 -- -- 64
2020-10-20 05:00:00 15.8 39 Sudeste 56 Sudeste 0 -- -- 60
2020-10-20 04:00:00 15.9 39 Sudeste 61 Sudeste 0 -- -- 60
2020-10-20 03:00:00 15.8 46 Sudeste 63 Sudeste 0 -- -- 60
2020-10-20 02:00:00 15.5 48 Sudeste 62 Sudeste 0 -- -- 63
2020-10-20 01:00:00 15.5 43 Sudeste 56 Sudeste 0 -- -- 63
2020-10-20 00:00:00 15.2 42 Sudeste 69 Sudeste 0 -- -- 64
2020-10-19 23:00:00 15.6 47 Sudeste 65 Sudeste 0 -- -- 64
2020-10-19 22:00:00 15.9 29 Sudeste 50 Sudeste 0 -- -- 63
2020-10-19 21:00:00 15.9 33 Sudeste 50 Sudeste 0 -- -- 59
2020-10-19 20:00:00 16.3 40 Sudeste 53 Sudeste 0 -- -- 54
2020-10-19 19:00:00 17.5 24 Sudeste 53 Sudeste 0 -- -- 50
2020-10-19 18:00:00 19.2 38 Sudeste 53 Sudeste 0 -- -- 49
2020-10-19 17:00:00 20.1 40 Sudeste 56 Sudeste 0 -- -- 43
2020-10-19 16:00:00 20.9 38 Sudeste 57 Sudeste 0 -- -- 42
2020-10-19 15:00:00 19.9 40 Sudeste 58 Sudeste 0 -- -- 45
2020-10-19 14:00:00 19 43 Sudeste 58 Sudeste 0 -- -- 47
2020-10-19 13:00:00 17.6 36 Sudeste 51 Sudeste 0 -- -- 50
2020-10-19 12:00:00 16.4 33 Sudeste 45 Sudeste 0 -- -- 53
2020-10-19 11:00:00 15.1 21 Sudeste 41 Sudeste 0 -- -- 53
2020-10-19 10:00:00 13.1 24 Sudeste 32 Sudeste 0 -- -- 55
2020-10-19 09:00:00 9.5 16 Sudeste 23 Sudeste 0 -- -- 66
2020-10-19 08:00:00 9.1 17 Sur 27 Sudeste 0 -- -- 68
2020-10-19 07:00:00 8.5 17 Sudeste 31 Sudeste 0 -- -- 71
2020-10-19 06:00:00 9.9 22 Sudeste 30 Sudeste 0 -- -- 67
2020-10-19 05:00:00 8 19 Sudeste 25 Sudeste 0 -- -- 76
2020-10-19 04:00:00 7.7 8 Sudeste 16 Sudeste 0 -- -- 77
2020-10-19 03:00:00 9.1 5 Sur 12 Sudeste 0 -- -- 71
2020-10-19 02:00:00 9.4 8 Sudeste 17 Sur 0 -- -- 71
2020-10-19 01:00:00 8.8 12 Sudeste 15 Sudeste 0 -- -- 75
2020-10-19 00:00:00 7.9 9 Sudeste 13 Sudeste 0 -- -- 80
2020-10-18 23:00:00 8.6 8 Sudeste 13 Sudeste 0 -- -- 79
2020-10-18 22:00:00 8.7 9 Sudeste 13 Sudeste 0 -- -- 81
2020-10-18 21:00:00 9.5 10 Sudeste 12 Sudeste 0 -- -- 80
2020-10-18 20:00:00 11.4 7 Sudeste 9 Este 0 -- -- 74
2020-10-18 19:00:00 14 4 Sudeste 6 Sur 0 -- -- 66
2020-10-18 18:00:00 15.5 2 Sudeste 7 Sur 0 -- -- 60
2020-10-18 17:00:00 17 4 Noroeste 13 Oeste 0 -- -- 46
2020-10-18 16:00:00 17.9 8 Noroeste 12 Oeste 0 -- -- 43
2020-10-18 15:00:00 17.3 5 Noroeste 14 Oeste 0 -- -- 47
2020-10-18 14:00:00 16.2 5 Noroeste 10 Oeste 0 -- -- 51
2020-10-18 13:00:00 14.1 4 Oeste 9 Sur 0 -- -- 61
2020-10-18 12:00:00 12.3 4 Sudeste 11 Sudeste 0 -- -- 67
2020-10-18 11:00:00 9.1 3 Nordeste 6 Sudeste 0 -- -- 80
2020-10-18 10:00:00 4.8 5 Sudeste 9 Sudeste 0 -- -- 94
2020-10-18 09:00:00 2.7 6 Sudeste 8 Sudeste 0 -- -- 96
2020-10-18 08:00:00 2.6 4 Sudeste 6 Sudeste 0 -- -- 95
2020-10-18 07:00:00 3.5 4 Este 9 Sudeste 0 -- -- 96
2020-10-18 06:00:00 3 8 Sudeste 11 Sudeste 0 -- -- 96
2020-10-18 05:00:00 3.7 4 Sudeste 8 Sudeste 0 -- -- 94
2020-10-18 04:00:00 3.9 6 Sudeste 8 Sudeste 0 -- -- 95
2020-10-18 03:00:00 4.5 4 Sudeste 9 Sudeste 0 -- -- 94
2020-10-18 02:00:00 4.9 8 Sudeste 9 Sudeste 0 -- -- 92
2020-10-18 01:00:00 4.7 8 Sudeste 10 Sudeste 0 -- -- 93
2020-10-18 00:00:00 5.7 6 Sudeste 10 Sudeste 0 -- -- 90
2020-10-17 23:00:00 6.3 9 Sudeste 11 Sudeste 0 -- -- 89
2020-10-17 22:00:00 6.9 9 Sudeste 12 Sudeste 0 -- -- 88
2020-10-17 21:00:00 8.5 10 Sudeste 12 Sudeste 0 -- -- 84
2020-10-17 20:00:00 10.2 8 Sudeste 11 Sur 0 -- -- 77
2020-10-17 19:00:00 12.6 3 Noroeste 11 Noroeste 0 -- -- 64
2020-10-17 18:00:00 14.9 8 Noroeste 15 Noroeste 0 -- -- 57
2020-10-17 17:00:00 14.7 12 Noroeste 18 Oeste 0 -- -- 57
2020-10-17 16:00:00 14.5 13 Noroeste 17 Oeste 0 -- -- 59
2020-10-17 15:00:00 14.5 7 Oeste 12 Oeste 0 -- -- 58
2020-10-17 14:00:00 13.2 7 Oeste 14 Oeste 0 -- -- 63
2020-10-17 13:00:00 11.7 4 Noroeste 9 Noroeste 0 -- -- 70
2020-10-17 12:00:00 9.6 3 Noroeste 9 Oeste 0 -- -- 77
2020-10-17 11:00:00 7.5 3 Oeste 5 Oeste 0 -- -- 84
2020-10-17 10:00:00 4.6 0 Calma 6 Sur 0 -- -- 96
2020-10-17 09:00:00 2.3 6 Sudeste 13 Este 0 -- -- 97
2020-10-17 08:00:00 1.6 6 Sudeste 8 Sudeste 0 -- -- 98
2020-10-17 07:00:00 1.9 3 Este 13 Este 0 -- -- 97
2020-10-17 06:00:00 1.5 8 Sudeste 10 Sudeste 0 -- -- 98
2020-10-17 05:00:00 1.3 9 Sudeste 10 Sudeste 0 -- -- 98
2020-10-17 04:00:00 1.3 5 Sudeste 9 Este 0 -- -- 96
2020-10-17 03:00:00 1.8 7 Sudeste 9 Sudeste 0 -- -- 97
2020-10-17 02:00:00 2.3 6 Sudeste 8 Sudeste 0 -- -- 96
2020-10-17 01:00:00 2.9 6 Sudeste 8 Sudeste 0 -- -- 95
2020-10-17 00:00:00 3.6 5 Sudeste 12 Noroeste 0 -- -- 93
2020-10-16 23:00:00 5.5 11 Noroeste 18 Noroeste 0 -- -- 89
2020-10-16 22:00:00 5.8 13 Noroeste 24 Noroeste 0 -- -- 87
2020-10-16 21:00:00 6.3 16 Noroeste 26 Oeste 0 -- -- 84
2020-10-16 20:00:00 7.1 18 Noroeste 29 Noroeste 0 -- -- 81
2020-10-16 19:00:00 8.4 21 Noroeste 40 Noroeste 0 -- -- 75
2020-10-16 18:00:00 10.3 23 Noroeste 34 Noroeste 0 -- -- 67
2020-10-16 17:00:00 10.9 26 Noroeste 37 Noroeste 0 -- -- 63
2020-10-16 16:00:00 11.3 24 Noroeste 35 Norte 0 -- -- 61
2020-10-16 15:00:00 11.3 21 Noroeste 45 Norte 0 -- -- 58
2020-10-16 14:00:00 11.6 22 Noroeste 42 Noroeste 0 -- -- 61
2020-10-16 13:00:00 10.5 25 Noroeste 38 Noroeste 0 -- -- 63
2020-10-16 12:00:00 9.6 21 Noroeste 37 Noroeste 0 -- -- 68
2020-10-16 11:00:00 8 20 Noroeste 51 Norte 0 -- -- 74
2020-10-16 10:00:00 6.2 24 Noroeste 32 Noroeste 0 -- -- 85
2020-10-16 09:00:00 4.7 24 Noroeste 30 Noroeste 0 -- -- 91
2020-10-16 08:00:00 4.7 19 Noroeste 33 Noroeste 0 -- -- 90
2020-10-16 07:00:00 4.3 21 Noroeste 28 Noroeste 0 -- -- 94
2020-10-16 06:00:00 4.8 20 Noroeste 31 Noroeste 0 -- -- 94
2020-10-16 05:00:00 4.9 21 Noroeste 33 Noroeste 0 -- -- 93
2020-10-16 04:00:00 5.6 26 Noroeste 35 Noroeste 0 -- -- 91
2020-10-16 03:00:00 5.6 24 Noroeste 35 Noroeste 0 -- -- 93
2020-10-16 02:00:00 5.5 21 Noroeste 29 Noroeste 0 -- -- 92
2020-10-16 01:00:00 5.9 23 Noroeste 30 Noroeste 0 -- -- 90
2020-10-16 00:00:00 5.5 24 Noroeste 32 Noroeste 0 -- -- 91
2020-10-15 23:00:00 5.5 21 Noroeste 30 Noroeste 0 -- -- 89
2020-10-15 22:00:00 5.7 26 Noroeste 37 Noroeste 0 -- -- 87
2020-10-15 21:00:00 5.5 21 Noroeste 34 Noroeste 0 -- -- 89
2020-10-15 20:00:00 6.2 24 Noroeste 41 Noroeste 0 -- -- 83
2020-10-15 19:00:00 7.6 29 Noroeste 43 Noroeste 0 -- -- 75
2020-10-15 18:00:00 8.5 32 Noroeste 46 Noroeste 0 -- -- 72
2020-10-15 17:00:00 8.9 26 Noroeste 42 Noroeste 0 -- -- 79
2020-10-15 16:00:00 8 25 Noroeste 42 Noroeste 0 -- -- 83
2020-10-15 15:00:00 10.6 25 Oeste 37 Oeste 0 -- -- 71
2020-10-15 14:00:00 9.9 26 Noroeste 37 Noroeste 0 -- -- 76
2020-10-15 13:00:00 9.2 23 Noroeste 34 Noroeste 0 -- -- 77
2020-10-15 12:00:00 7.5 25 Noroeste 34 Oeste 0 -- -- 85
2020-10-15 11:00:00 6.8 17 Noroeste 25 Noroeste 0 -- -- 86
2020-10-15 10:00:00 6 13 Noroeste 31 Norte 0.6 -- -- 91
2020-10-15 09:00:00 6.4 13 Noroeste 22 Noroeste 0 -- -- 94
2020-10-15 08:00:00 6.5 17 Noroeste 27 Oeste 0 -- -- 94
2020-10-15 07:00:00 6.5 20 Noroeste 28 Noroeste 0 -- -- 93
2020-10-15 06:00:00 6.4 15 Noroeste 25 Noroeste 0 -- -- 92
2020-10-15 05:00:00 6.4 21 Noroeste 28 Noroeste 0 -- -- 92
2020-10-15 04:00:00 6.4 18 Noroeste 36 Noroeste 0 -- -- 92
2020-10-15 03:00:00 6.3 19 Noroeste 30 Noroeste 0 -- -- 93
2020-10-15 02:00:00 6 13 Noroeste 21 Noroeste 0.2 -- -- 96
2020-10-15 01:00:00 6.4 15 Noroeste 23 Noroeste 0.2 -- -- 92
2020-10-15 00:00:00 5.9 16 Noroeste 27 Noroeste 0.2 -- -- 95
2020-10-14 23:00:00 6.3 19 Noroeste 31 Noroeste 0 -- -- 90
2020-10-14 22:00:00 6.1 21 Noroeste 38 Noroeste 0 -- -- 92
2020-10-14 21:00:00 7 21 Noroeste 34 Noroeste 0 -- -- 86
2020-10-14 20:00:00 7.5 22 Noroeste 44 Noroeste 0 -- -- 82
2020-10-14 19:00:00 7.8 29 Noroeste 46 Noroeste 0.2 -- -- 81
2020-10-14 18:00:00 7.8 26 Oeste 41 Oeste 0 -- -- 89
2020-10-14 17:00:00 8.7 23 Oeste 34 Oeste 0 -- -- 85
2020-10-14 16:00:00 7.9 24 Noroeste 37 Oeste 0 -- -- 91
2020-10-14 15:00:00 7.5 22 Noroeste 34 Noroeste 0.8 -- -- 92
2020-10-14 14:00:00 7 21 Noroeste 49 Noroeste 2 -- -- 93
2020-10-14 13:00:00 7 21 Noroeste 41 Oeste 1.4 -- -- 91
2020-10-14 12:00:00 7.2 22 Oeste 43 Oeste 1.8 -- -- 86
2020-10-14 11:00:00 7.4 19 Noroeste 32 Norte 0.6 -- -- 92
2020-10-14 10:00:00 7 12 Noroeste 30 Noroeste 0.6 -- -- 93
2020-10-14 09:00:00 6.8 20 Noroeste 32 Noroeste 1.4 -- -- 90
2020-10-14 08:00:00 7.1 19 Noroeste 24 Noroeste 0.2 -- -- 95
2020-10-14 07:00:00 7.3 14 Noroeste 30 Noroeste 0 -- -- 94
2020-10-14 06:00:00 7.6 21 Noroeste 35 Noroeste 0.2 -- -- 89
2020-10-14 05:00:00 7.9 16 Noroeste 27 Noroeste 0.2 -- -- 94
2020-10-14 04:00:00 7.9 5 Noroeste 12 Noroeste 0 -- -- 95
2020-10-14 03:00:00 7.9 5 Norte 17 Noroeste 0.2 -- -- 95
2020-10-14 02:00:00 8.2 13 Noroeste 22 Noroeste 0 -- -- 91
2020-10-14 01:00:00 8.3 17 Noroeste 32 Noroeste 0 -- -- 92
2020-10-14 00:00:00 8.8 15 Noroeste 35 Noroeste 0 -- -- 90
2020-10-13 23:00:00 9.2 20 Noroeste 28 Noroeste 0 -- -- 89
2020-10-13 22:00:00 9.3 18 Noroeste 25 Noroeste 0 -- -- 88
2020-10-13 21:00:00 9.8 15 Noroeste 26 Noroeste 0 -- -- 86
2020-10-13 20:00:00 10 14 Noroeste 25 Noroeste 0 -- -- 87
2020-10-13 19:00:00 9.8 11 Noroeste 40 Noroeste 0 -- -- 88
2020-10-13 18:00:00 10.2 13 Noroeste 40 Noroeste 0 -- -- 91
2020-10-13 17:00:00 10.6 25 Noroeste 49 Noroeste 0.2 -- -- 84
2020-10-13 16:00:00 11.3 32 Noroeste 49 Noroeste 0 -- -- 81
2020-10-13 15:00:00 11.7 29 Noroeste 48 Noroeste 0 -- -- 84
2020-10-13 14:00:00 11.7 31 Noroeste 49 Noroeste 0 -- -- 82
2020-10-13 13:00:00 11.3 32 Noroeste 48 Norte 0 -- -- 82
2020-10-13 12:00:00 10.6 35 Noroeste 51 Noroeste 0.4 -- -- 91
2020-10-13 11:00:00 10.6 18 Noroeste 31 Noroeste 0.4 -- -- 97
2020-10-13 10:00:00 11.2 18 Noroeste 24 Noroeste 0 -- -- 93
2020-10-13 09:00:00 9.9 17 Noroeste 24 Noroeste 0 -- -- 98
2020-10-13 08:00:00 9.6 18 Noroeste 24 Noroeste 0 -- -- 99
2020-10-13 07:00:00 9.1 16 Noroeste 21 Noroeste 0 -- -- 98
2020-10-13 06:00:00 9.5 16 Noroeste 24 Noroeste 0 -- -- 98
2020-10-13 05:00:00 9.1 14 Noroeste 25 Noroeste 0.2 -- -- 98
2020-10-13 04:00:00 8.4 2 Noroeste 7 Norte 0 -- -- 97
2020-10-13 03:00:00 8.3 0 Calma 6 Sudeste 0.2 -- -- 97
2020-10-13 02:00:00 8.3 3 Noroeste 6 Sudeste 0 -- -- 96
2020-10-13 01:00:00 -- -- -- -- -- -- -- -- --
2020-10-13 00:00:00 8.7 9 Norte 16 Norte 0 -- -- 89
2020-10-12 23:00:00 9.7 5 Norte 10 Norte 0 -- -- 78
2020-10-12 22:00:00 9.4 6 Norte 13 Noroeste 0 -- -- 81
2020-10-12 21:00:00 9.2 9 Norte 15 Noroeste 0 -- -- 83
2020-10-12 20:00:00 9.5 11 Norte 27 Noroeste 0 -- -- 81
2020-10-12 19:00:00 10 21 Noroeste 33 Noroeste 0 -- -- 79
2020-10-12 18:00:00 10.5 23 Noroeste 45 Noroeste 0 -- -- 79
2020-10-12 17:00:00 10 29 Noroeste 44 Noroeste 0 -- -- 84
2020-10-12 16:00:00 10.5 28 Noroeste 41 Noroeste 0 -- -- 82
2020-10-12 15:00:00 11.2 26 Norte 37 Noroeste 0 -- -- 71
2020-10-12 14:00:00 12 24 Norte 45 Noroeste 0 -- -- 69
2020-10-12 13:00:00 10.9 27 Noroeste 46 Noroeste 0 -- -- 73
2020-10-12 12:00:00 10 28 Noroeste 44 Norte 0 -- -- 80
2020-10-12 11:00:00 10.1 24 Noroeste 42 Norte 0 -- -- 81
2020-10-12 10:00:00 9.1 19 Noroeste 29 Noroeste 0 -- -- 79
2020-10-12 09:00:00 8.2 18 Noroeste 31 Noroeste 0 -- -- 88
2020-10-12 08:00:00 7.8 20 Noroeste 42 Noroeste 0.2 -- -- 96
2020-10-12 07:00:00 7.8 31 Noroeste 41 Noroeste 0.2 -- -- 96
2020-10-12 06:00:00 7.9 25 Noroeste 38 Noroeste 0 -- -- 93
2020-10-12 05:00:00 7.7 27 Noroeste 33 Noroeste 0 -- -- 94
2020-10-12 04:00:00 -- -- -- -- -- -- -- -- --
2020-10-12 03:00:00 8.2 30 Noroeste 50 Noroeste 0 -- -- 87
2020-10-12 02:00:00 8.2 33 Noroeste 48 Noroeste 0 -- -- 86
2020-10-12 01:00:00 8.1 31 Noroeste 44 Noroeste 0 -- -- 90
2020-10-12 00:00:00 8.3 29 Noroeste 60 Noroeste 0 -- -- 86
2020-10-11 23:00:00 8.1 29 Noroeste 40 Noroeste 0.2 -- -- 92
2020-10-11 22:00:00 8 25 Noroeste 41 Noroeste 0 -- -- 93
2020-10-11 21:00:00 -- -- -- -- -- -- -- -- --
2020-10-11 20:00:00 -- -- -- -- -- -- -- -- --
2020-10-11 19:00:00 8.6 30 Noroeste 48 Noroeste 0 -- -- 87
2020-10-11 18:00:00 9 27 Noroeste 54 Noroeste 0.2 -- -- 83
2020-10-11 17:00:00 9.3 23 Noroeste 52 Noroeste 0 -- -- 85
2020-10-11 16:00:00 9.6 36 Noroeste 51 Noroeste 0 -- -- 85
2020-10-11 15:00:00 9.2 31 Noroeste 46 Noroeste 0.2 -- -- 92
2020-10-11 14:00:00 10 32 Noroeste 45 Oeste 0.4 -- -- 91
2020-10-11 13:00:00 9.9 24 Noroeste 39 Noroeste 0 -- -- 78
2020-10-11 12:00:00 9.2 20 Noroeste 35 Noroeste 0 -- -- 84
2020-10-11 11:00:00 7.3 22 Noroeste 40 Oeste 0 -- -- 95
2020-10-11 10:00:00 8 19 Noroeste 29 Noroeste 0 -- -- 83
2020-10-11 09:00:00 7.5 17 Noroeste 48 Noroeste 0 -- -- 84
2020-10-11 08:00:00 7.3 18 Noroeste 33 Noroeste 0 -- -- 83
2020-10-11 07:00:00 7.1 20 Noroeste 28 Noroeste 0 -- -- 84
2020-10-11 06:00:00 7.4 19 Noroeste 43 Noroeste 0 -- -- 76
2020-10-11 05:00:00 8.1 28 Noroeste 55 Noroeste 0 -- -- 70
2020-10-11 04:00:00 8.6 35 Noroeste 50 Noroeste 0 -- -- 72
2020-10-11 03:00:00 9.1 25 Noroeste 41 Noroeste 0 -- -- 75
2020-10-11 02:00:00 9.3 20 Noroeste 35 Noroeste 0 -- -- 78
2020-10-11 01:00:00 9.4 23 Noroeste 39 Norte 0 -- -- 84
2020-10-11 00:00:00 9.6 24 Noroeste 36 Noroeste 0 -- -- 87
2020-10-10 23:00:00 10 26 Noroeste 42 Noroeste 0 -- -- 81
2020-10-10 22:00:00 10.1 27 Noroeste 43 Norte 0 -- -- 80
2020-10-10 21:00:00 10.8 26 Noroeste 42 Noroeste 0 -- -- 79
2020-10-10 20:00:00 10.8 22 Noroeste 48 Noroeste 0 -- -- 74
2020-10-10 19:00:00 11.3 31 Noroeste 50 Noroeste 0 -- -- 70
2020-10-10 18:00:00 13.4 41 Noroeste 57 Noroeste 0 -- -- 63
2020-10-10 17:00:00 13.5 30 Noroeste 54 Norte 0 -- -- 65
2020-10-10 16:00:00 14.8 32 Noroeste 49 Noroeste 0 -- -- 59
2020-10-10 15:00:00 14.7 30 Noroeste 43 Norte 0 -- -- 63
2020-10-10 14:00:00 13.9 27 Norte 45 Noroeste 0 -- -- 70
2020-10-10 13:00:00 13.4 26 Noroeste 39 Noroeste 0 -- -- 78
2020-10-10 12:00:00 13.7 23 Noroeste 35 Oeste 0 -- -- 83
2020-10-10 11:00:00 14.1 24 Noroeste 32 Noroeste 0 -- -- 80
2020-10-10 10:00:00 13.5 21 Noroeste 28 Noroeste 0 -- -- 80
2020-10-10 09:00:00 11.7 19 Noroeste 24 Noroeste 0 -- -- 85
2020-10-10 08:00:00 10.8 20 Noroeste 28 Noroeste 0 -- -- 89
2020-10-10 07:00:00 11.2 17 Noroeste 22 Noroeste 0 -- -- 85
2020-10-10 06:00:00 11.8 16 Noroeste 27 Noroeste 0 -- -- 82
2020-10-10 05:00:00 12.7 16 Noroeste 35 Noroeste 0 -- -- 80
2020-10-10 04:00:00 12.8 24 Noroeste 36 Noroeste 0 -- -- 85
2020-10-10 03:00:00 12.8 22 Noroeste 34 Noroeste 0 -- -- 87
2020-10-10 02:00:00 13.3 20 Noroeste 31 Noroeste 0 -- -- 86
2020-10-10 01:00:00 13.6 23 Noroeste 33 Noroeste 0 -- -- 87
2020-10-10 00:00:00 13.9 24 Noroeste 33 Noroeste 0 -- -- 87
2020-10-09 23:00:00 14.2 22 Noroeste 34 Noroeste 0 -- -- 88
2020-10-09 22:00:00 14.9 23 Noroeste 38 Noroeste 0 -- -- 85
2020-10-09 21:00:00 15.2 24 Noroeste 34 Noroeste 0 -- -- 86
2020-10-09 20:00:00 15.7 17 Noroeste 30 Noroeste 0 -- -- 84
2020-10-09 19:00:00 16.5 21 Noroeste 28 Noroeste 0 -- -- 81
2020-10-09 18:00:00 18.3 22 Noroeste 39 Oeste 0 -- -- 76
2020-10-09 17:00:00 19.2 25 Oeste 36 Oeste 0 -- -- 73
2020-10-09 16:00:00 20.3 26 Oeste 35 Oeste 0 -- -- 71
2020-10-09 15:00:00 19.8 23 Noroeste 31 Oeste 0 -- -- 72
2020-10-09 14:00:00 18.7 21 Noroeste 28 Noroeste 0 -- -- 75
2020-10-09 13:00:00 17.4 18 Noroeste 23 Noroeste 0 -- -- 78
2020-10-09 12:00:00 15.8 14 Noroeste 20 Noroeste 0 -- -- 85
2020-10-09 11:00:00 15.1 9 Noroeste 12 Noroeste 0 -- -- 87
2020-10-09 10:00:00 13.2 0 Calma 6 Sudeste 0 -- -- 95
2020-10-09 09:00:00 10.6 4 Sudeste 8 Este 0 -- -- 97
2020-10-09 08:00:00 10.9 0 Calma 5 Noroeste 0 -- -- 98
2020-10-09 07:00:00 10.8 4 Sudeste 10 Sudeste 0 -- -- 96
2020-10-09 06:00:00 11.1 6 Sudeste 8 Sudeste 0 -- -- 96
2020-10-09 05:00:00 11.7 3 Sudeste 8 Este 0 -- -- 94
2020-10-09 04:00:00 12.1 0 Calma 12 Este 0 -- -- 94
2020-10-09 03:00:00 12 8 Sudeste 12 Sudeste 0 -- -- 92
2020-10-09 02:00:00 12.2 7 Sudeste 9 Sudeste 0 -- -- 91
2020-10-09 01:00:00 12.9 4 Sudeste 11 Sudeste 0 -- -- 89
2020-10-09 00:00:00 13.1 10 Sudeste 15 Sudeste 0 -- -- 89
2020-10-08 23:00:00 13.5 12 Sudeste 14 Sudeste 0 -- -- 89
2020-10-08 22:00:00 14.6 8 Sudeste 10 Sudeste 0 -- -- 86
2020-10-08 21:00:00 15.9 7 Sudeste 11 Sudeste 0 -- -- 82
2020-10-08 20:00:00 17.6 6 Sudeste 8 Sudeste 0 -- -- 78
2020-10-08 19:00:00 19.4 5 Noroeste 11 Oeste 0 -- -- 68
2020-10-08 18:00:00 20.5 8 Oeste 14 Oeste 0 -- -- 66
2020-10-08 17:00:00 21.7 11 Noroeste 15 Noroeste 0 -- -- 59
2020-10-08 16:00:00 22 8 Sur 19 Sur 0 -- -- 52
2020-10-08 15:00:00 23.1 12 Sudeste 21 Sudeste 0 -- -- 49
2020-10-08 14:00:00 21.3 9 Sudeste 18 Sudeste 0 -- -- 58
2020-10-08 13:00:00 18.6 5 Norte 14 Noroeste 0 -- -- 73
2020-10-08 12:00:00 15.6 11 Noroeste 14 Noroeste 0 -- -- 81
2020-10-08 11:00:00 16 5 Sudeste 13 Sudeste 0 -- -- 80
2020-10-08 10:00:00 11.8 6 Este 10 Este 0 -- -- 90
2020-10-08 09:00:00 9.8 7 Este 10 Este 0 -- -- 98
2020-10-08 08:00:00 8.2 5 Sudeste 9 Este 0 -- -- 95
2020-10-08 07:00:00 8.4 9 Sudeste 12 Sudeste 0 -- -- 97
2020-10-08 06:00:00 8.7 9 Sudeste 11 Sudeste 0 -- -- 96
2020-10-08 05:00:00 10.3 7 Sudeste 21 Noroeste 0 -- -- 93
2020-10-08 04:00:00 12.1 17 Noroeste 24 Noroeste 0 -- -- 90
2020-10-08 03:00:00 12.6 18 Noroeste 23 Noroeste 0 -- -- 89
2020-10-08 02:00:00 11.9 10 Noroeste 21 Noroeste 0 -- -- 92
2020-10-08 01:00:00 13.2 15 Noroeste 24 Noroeste 0 -- -- 89
2020-10-08 00:00:00 13.4 16 Noroeste 27 Noroeste 0 -- -- 90
2020-10-07 23:00:00 13.4 18 Noroeste 26 Noroeste 0 -- -- 91
2020-10-07 22:00:00 14 18 Noroeste 28 Noroeste 0 -- -- 86
2020-10-07 21:00:00 14.6 20 Norte 29 Noroeste 0 -- -- 84
2020-10-07 20:00:00 14.5 24 Noroeste 40 Noroeste 0 -- -- 85
2020-10-07 19:00:00 15.2 23 Noroeste 35 Noroeste 0 -- -- 82
2020-10-07 18:00:00 15.1 23 Noroeste 34 Norte 0 -- -- 86
2020-10-07 17:00:00 16.7 27 Norte 39 Noroeste 0 -- -- 77
2020-10-07 16:00:00 16.8 25 Noroeste 36 Noroeste 0 -- -- 78
2020-10-07 15:00:00 16.3 25 Noroeste 39 Norte 0 -- -- 79
2020-10-07 14:00:00 16.3 23 Noroeste 32 Noroeste 0 -- -- 80
2020-10-07 13:00:00 15 24 Noroeste 33 Noroeste 0 -- -- 89
2020-10-07 12:00:00 15.7 20 Noroeste 30 Noroeste 0 -- -- 90
2020-10-07 11:00:00 15.8 20 Noroeste 30 Noroeste 0 -- -- 88
2020-10-07 10:00:00 15.1 22 Noroeste 32 Noroeste 0 -- -- 93
2020-10-07 09:00:00 14.9 17 Noroeste 26 Noroeste 0 -- -- 92
2020-10-07 08:00:00 14.7 17 Noroeste 31 Noroeste 0 -- -- 92
2020-10-07 07:00:00 15.2 16 Noroeste 23 Noroeste 0 -- -- 88
2020-10-07 06:00:00 14.8 11 Noroeste 16 Noroeste 0 -- -- 90
2020-10-07 05:00:00 14.8 7 Noroeste 10 Noroeste 0 -- -- 88
2020-10-07 04:00:00 15 3 Norte 8 Noroeste 0 -- -- 87
2020-10-07 03:00:00 15.1 2 Norte 11 Norte 0 -- -- 86
2020-10-07 02:00:00 15.5 7 Norte 15 Norte 0 -- -- 84
2020-10-07 01:00:00 16.2 13 Norte 16 Noroeste 0 -- -- 81
2020-10-07 00:00:00 16 8 Noroeste 11 Noroeste 0 -- -- 83
2020-10-06 23:00:00 15.3 5 Noroeste 10 Noroeste 0 -- -- 87
2020-10-06 22:00:00 14.9 2 Este 6 Sudeste 0 -- -- 90
2020-10-06 21:00:00 14.8 3 Sudeste 8 Norte 0 -- -- 90
2020-10-06 20:00:00 15.3 5 Norte 9 Oeste 0 -- -- 87
2020-10-06 19:00:00 15.9 6 Noroeste 18 Norte 0 -- -- 85
2020-10-06 18:00:00 16.3 11 Noroeste 20 Norte 0 -- -- 81
2020-10-06 17:00:00 16.4 15 Norte 21 Norte 0 -- -- 80
2020-10-06 16:00:00 16.6 10 Norte 17 Norte 0 -- -- 79
2020-10-06 15:00:00 17.1 3 Noroeste 13 Sur 0 -- -- 74
2020-10-06 14:00:00 16.9 5 Este 10 Sudeste 0 -- -- 72
2020-10-06 13:00:00 15.2 5 Sudeste 10 Sudeste 0 -- -- 77
2020-10-06 12:00:00 13.4 0 Calma 5 Sudoeste 0 -- -- 80
2020-10-06 11:00:00 12.2 2 Noroeste 6 Noroeste 0 -- -- 83
2020-10-06 10:00:00 11.4 0 Calma 4 Sudoeste 0 -- -- 84
2020-10-06 09:00:00 10.7 2 Sudeste 10 Este 0 -- -- 87
2020-10-06 08:00:00 10.1 4 Este 9 Este 0 -- -- 87
2020-10-06 07:00:00 10 3 Sudeste 9 Noroeste 0 -- -- 87
2020-10-06 06:00:00 10.4 4 Norte 11 Sudeste 0 -- -- 83
2020-10-06 05:00:00 10.1 3 Sudeste 13 Sudeste 0 -- -- 85
2020-10-06 04:00:00 10.8 9 Sudeste 14 Sudeste 0 -- -- 78
2020-10-06 03:00:00 10.4 10 Sudeste 17 Sudeste 0 -- -- 80
2020-10-06 02:00:00 10.3 7 Sudeste 16 Sudeste 0 -- -- 81
2020-10-06 01:00:00 9.6 8 Sudeste 17 Sur 0 -- -- 82
2020-10-06 00:00:00 9.3 12 Sur 14 Sur 0 -- -- 83
2020-10-05 23:00:00 8.2 6 Sudeste 10 Sudeste 0 -- -- 90
2020-10-05 22:00:00 8.7 5 Sudeste 9 Sudeste 0 -- -- 89
2020-10-05 21:00:00 9.5 7 Sudeste 9 Sudeste 0 -- -- 87
2020-10-05 20:00:00 10.8 6 Sudeste 15 Sudeste 0 -- -- 80
2020-10-05 19:00:00 13.7 3 Sur 11 Oeste 0 -- -- 67
2020-10-05 18:00:00 15.7 9 Oeste 19 Noroeste 0 -- -- 60
2020-10-05 17:00:00 15.8 12 Noroeste 20 Noroeste 0 -- -- 57
2020-10-05 16:00:00 15.9 11 Noroeste 22 Noroeste 0 -- -- 59
2020-10-05 15:00:00 13.8 13 Noroeste 22 Noroeste 0 -- -- 68
2020-10-05 14:00:00 13 17 Noroeste 24 Noroeste 0 -- -- 70
2020-10-05 13:00:00 12.1 17 Noroeste 26 Noroeste 0 -- -- 72
2020-10-05 12:00:00 11.7 10 Noroeste 22 Noroeste 0 -- -- 74
2020-10-05 11:00:00 10.4 14 Noroeste 21 Noroeste 0 -- -- 77
2020-10-05 10:00:00 9.8 3 Noroeste 15 Noroeste 0 -- -- 79
2020-10-05 09:00:00 8.8 5 Norte 10 Noroeste 0 -- -- 82
2020-10-05 08:00:00 8.3 0 Calma 8 Este 0 -- -- 88
2020-10-05 07:00:00 8.1 3 Este 7 Este 0 -- -- 88
2020-10-05 06:00:00 8.1 4 Este 8 Norte 0 -- -- 86
2020-10-05 05:00:00 8.5 3 Norte 7 Sudeste 0 -- -- 81
2020-10-05 04:00:00 7.5 6 Sudeste 9 Sudeste 0 -- -- 91
2020-10-05 03:00:00 7.8 4 Sur 10 Sudeste 0 -- -- 88
2020-10-05 02:00:00 7.9 7 Sudeste 10 Sudeste 0 -- -- 88
2020-10-05 01:00:00 8.3 5 Este 9 Este 0 -- -- 84
2020-10-05 00:00:00 8.6 3 Sudeste 9 Noroeste 0 -- -- 81
2020-10-04 23:00:00 9.1 7 Noroeste 17 Noroeste 0 -- -- 74
2020-10-04 22:00:00 9.9 3 Norte 12 Noroeste 0 -- -- 70
2020-10-04 21:00:00 9.9 2 Nordeste 14 Norte 0 -- -- 72
2020-10-04 20:00:00 10.2 6 Noroeste 28 Noroeste 0 -- -- 72
2020-10-04 19:00:00 10.8 20 Noroeste 41 Noroeste 0 -- -- 68
2020-10-04 18:00:00 11.3 29 Noroeste 46 Noroeste 0 -- -- 68
2020-10-04 17:00:00 11.7 23 Noroeste 44 Noroeste 0 -- -- 70
2020-10-04 16:00:00 11.3 9 Oeste 21 Oeste 0.4 -- -- 80
2020-10-04 15:00:00 11.2 7 Oeste 18 Oeste 0 -- -- 88
2020-10-04 14:00:00 10.6 14 Noroeste 24 Noroeste 1 -- -- 88
2020-10-04 13:00:00 12 3 Norte 17 Sudeste 0 -- -- 76
2020-10-04 12:00:00 10.2 7 Este 20 Sudeste 0.4 -- -- 89
2020-10-04 11:00:00 8.8 18 Sudeste 24 Sudeste 0.6 -- -- 95
2020-10-04 10:00:00 7.7 11 Sur 17 Sudeste 1.6 -- -- 96
2020-10-04 09:00:00 7.7 0 Calma 16 Sudeste 1.8 -- -- 93
2020-10-04 08:00:00 8.6 17 Sudeste 24 Sudeste 0 -- -- 84
2020-10-04 07:00:00 8.4 11 Sudeste 32 Sudeste 0 -- -- 85
2020-10-04 06:00:00 9.1 27 Sudeste 33 Sudeste 0 -- -- 80
2020-10-04 05:00:00 9.3 8 Sudeste 18 Este 0 -- -- 77
2020-10-04 04:00:00 10.4 5 Sur 23 Oeste 0 -- -- 72
2020-10-04 03:00:00 10.3 15 Oeste 31 Sudoeste 0 -- -- 73
2020-10-04 02:00:00 9.7 8 Sudeste 19 Sudoeste 0 -- -- 79
2020-10-04 01:00:00 8.2 10 Sudeste 14 Sudeste 0 -- -- 88
2020-10-04 00:00:00 7.9 11 Sudeste 15 Sudeste 0 -- -- 90
2020-10-03 23:00:00 8.6 8 Sudeste 10 Sudeste 0 -- -- 91
2020-10-03 22:00:00 9.2 8 Sudeste 9 Sudeste 0 -- -- 92
2020-10-03 21:00:00 10.2 6 Norte 19 Norte 0 -- -- 83
2020-10-03 20:00:00 10.1 9 Noroeste 13 Norte 0 -- -- 85
2020-10-03 19:00:00 11.2 10 Noroeste 19 Norte 0 -- -- 75
2020-10-03 18:00:00 11.8 11 Norte 26 Noroeste 0 -- -- 75
2020-10-03 17:00:00 14 16 Noroeste 26 Oeste 0 -- -- 65
2020-10-03 16:00:00 11.9 19 Noroeste 33 Noroeste 0 -- -- 74
2020-10-03 15:00:00 10.2 22 Oeste 49 Oeste 0.4 -- -- 76
2020-10-03 14:00:00 9.6 14 Sudoeste 41 Oeste 0.2 -- -- 76
2020-10-03 13:00:00 8.7 22 Sudoeste 42 Sudoeste 0.4 -- -- 83
2020-10-03 12:00:00 7.2 3 Este 24 Noroeste 1.8 -- -- 90
2020-10-03 11:00:00 5.9 19 Noroeste 57 Oeste 2.8 -- -- 90
2020-10-03 10:00:00 6.4 40 Oeste 67 Oeste 1.2 -- -- 82
2020-10-03 09:00:00 6.8 29 Oeste 55 Oeste 4.2 -- -- 82
2020-10-03 08:00:00 6.7 29 Oeste 58 Sudoeste 2.4 -- -- 83
2020-10-03 07:00:00 7.8 27 Oeste 53 Oeste 0.4 -- -- 76
2020-10-03 06:00:00 8.6 17 Sudoeste 45 Oeste 0 -- -- 71
2020-10-03 05:00:00 8.9 27 Sudoeste 51 Sudoeste 0 -- -- 69
2020-10-03 04:00:00 8.7 33 Sudoeste 55 Sudoeste 0 -- -- 72
2020-10-03 03:00:00 8.4 42 Sudoeste 67 Sudoeste 0 -- -- 74
2020-10-03 02:00:00 8.5 35 Sudoeste 58 Sudoeste 0 -- -- 71
2020-10-03 01:00:00 8.7 27 Oeste 55 Oeste 0 -- -- 69
2020-10-03 00:00:00 9.2 29 Oeste 52 Oeste 0 -- -- 62
2020-10-02 23:00:00 9.1 11 Noroeste 44 Oeste 0 -- -- 59
2020-10-02 22:00:00 8.6 18 Oeste 36 Oeste 0 -- -- 64
2020-10-02 21:00:00 7.5 8 Noroeste 26 Noroeste 0 -- -- 73
2020-10-02 20:00:00 7.4 4 Noroeste 32 Noroeste 0 -- -- 76
2020-10-02 19:00:00 8.5 22 Noroeste 43 Noroeste 0 -- -- 71
2020-10-02 18:00:00 9.3 32 Noroeste 50 Noroeste 0 -- -- 69
2020-10-02 17:00:00 10.1 36 Noroeste 54 Noroeste 0 -- -- 65
2020-10-02 16:00:00 10.3 33 Oeste 51 Noroeste 0 -- -- 69
2020-10-02 15:00:00 11 37 Noroeste 57 Noroeste 0 -- -- 68
2020-10-02 14:00:00 10.5 37 Noroeste 47 Noroeste 0 -- -- 72
2020-10-02 13:00:00 8.8 9 Noroeste 18 Noroeste 0 -- -- 85
2020-10-02 12:00:00 7.3 9 Noroeste 36 Noroeste 2.4 -- -- 94
2020-10-02 11:00:00 7.7 25 Noroeste 49 Noroeste 3.2 -- -- 94
2020-10-02 10:00:00 9 34 Noroeste 49 Noroeste 2.4 -- -- 92
2020-10-02 09:00:00 10.1 16 Noroeste 32 Noroeste 2 -- -- 98
2020-10-02 08:00:00 10.2 24 Noroeste 61 Noroeste 11.2 -- -- 97
2020-10-02 07:00:00 12.2 19 Sudeste 46 Sur 1.6 -- -- 90
2020-10-02 06:00:00 12.5 30 Sur 67 Sudeste 2.4 -- -- 86
2020-10-02 05:00:00 13.6 51 Sur 69 Sudeste 0 -- -- 76
2020-10-02 04:00:00 13.8 45 Sudeste 66 Sur 0 -- -- 73
2020-10-02 03:00:00 12.8 36 Sudeste 57 Sudeste 0.4 -- -- 80
2020-10-02 02:00:00 13.5 36 Sur 52 Sudeste 0.2 -- -- 73
2020-10-02 01:00:00 15.2 32 Sudeste 50 Sudeste 0 -- -- 63
2020-10-02 00:00:00 15.6 42 Sudeste 53 Sudeste 0 -- -- 64
2020-10-01 23:00:00 15 30 Sudeste 42 Sudeste 0 -- -- 69
2020-10-01 22:00:00 14.5 10 Sudeste 15 Sudeste 0 -- -- 72
2020-10-01 21:00:00 14.5 5 Sur 18 Sur 0 -- -- 74
2020-10-01 20:00:00 14.3 6 Sur 10 Sur 0 -- -- 78
2020-10-01 19:00:00 16 4 Oeste 11 Oeste 0 -- -- 71
2020-10-01 18:00:00 17.2 5 Noroeste 17 Noroeste 0 -- -- 65
2020-10-01 17:00:00 18.3 10 Oeste 22 Oeste 0 -- -- 62
2020-10-01 16:00:00 17.4 18 Noroeste 27 Noroeste 0 -- -- 65
2020-10-01 15:00:00 16.7 13 Noroeste 25 Noroeste 0 -- -- 69
2020-10-01 14:00:00 16.2 15 Noroeste 30 Noroeste 0 -- -- 70
2020-10-01 13:00:00 15.4 17 Noroeste 24 Noroeste 0 -- -- 76
2020-10-01 12:00:00 14.2 11 Noroeste 25 Noroeste 0 -- -- 84
2020-10-01 11:00:00 14.3 17 Noroeste 33 Noroeste 0 -- -- 81
2020-10-01 10:00:00 15.2 4 Noroeste 8 Este 0 -- -- 74
2020-10-01 09:00:00 11.5 6 Sudeste 9 Sudeste 0 -- -- 81
2020-10-01 08:00:00 10.4 4 Este 10 Sudeste 0 -- -- 82
2020-10-01 07:00:00 10.1 4 Sudeste 27 Noroeste 0 -- -- 88
2020-10-01 06:00:00 11.1 22 Noroeste 26 Noroeste 0 -- -- 86
2020-10-01 05:00:00 14 6 Sudeste 12 Sudoeste 0 -- -- 60
2020-10-01 04:00:00 14.6 9 Sur 13 Sur 0 -- -- 57
2020-10-01 03:00:00 12.8 9 Sudeste 12 Sudeste 0 -- -- 66
2020-10-01 02:00:00 14.8 4 Sur 13 Sudeste 0 -- -- 56
2020-10-01 01:00:00 14.7 10 Sudeste 13 Sudeste 0 -- -- 57
2020-10-01 00:00:00 14.2 6 Sudeste 10 Sudeste 0 -- -- 62